Time;durP1;ratioP1;P1;durP2;ratioP2;P2;SDS_P1;SDS_P2;PMS_P1;PMS_P2;Temp;Humidity;BMP_temperature;BMP_pressure;BME280_temperature;BME280_humidity;BME280_pressure;Samples;Min_cycle;Max_cycle;Signal;HPM_P1;HPM_P2
2022/07/28 00:01:24;;;;;;;5.57;3.83;;;;;;;15.46;59.60;101632.03;5060514;28;20551;-71
2022/07/28 00:03:49;;;;;;;4.67;3.83;;;;;;;15.70;59.50;101637.41;5060309;28;20178;-70
2022/07/28 00:06:15;;;;;;;7.57;3.70;;;;;;;15.62;59.71;101637.38;5058748;28;20200;-69
2022/07/28 00:08:40;;;;;;;10.63;7.33;;;;;;;15.35;60.27;101644.28;5056983;28;20188;-71
2022/07/28 00:11:06;;;;;;;5.70;4.40;;;;;;;15.57;60.27;101633.84;5060712;28;20506;-70
2022/07/28 00:13:32;;;;;;;20.07;15.70;;;;;;;15.79;59.61;101630.41;5061932;28;20443;-72
2022/07/28 00:15:57;;;;;;;5.70;4.20;;;;;;;15.62;59.94;101627.72;5059376;28;20409;-71
2022/07/28 00:18:22;;;;;;;10.33;6.50;;;;;;;15.40;60.67;101626.78;5060072;28;20216;-70
2022/07/28 00:20:48;;;;;;;6.20;3.70;;;;;;;15.55;60.41;101628.59;5060436;28;20229;-71
2022/07/28 00:23:13;;;;;;;6.80;4.37;;;;;;;15.35;60.96;101636.38;5060379;28;20181;-71
2022/07/28 00:25:38;;;;;;;9.03;4.40;;;;;;;15.52;60.45;101640.84;5060178;28;20216;-71
2022/07/28 00:28:04;;;;;;;8.60;3.97;;;;;;;15.58;60.39;101630.34;5055039;28;20173;-70
2022/07/28 00:30:29;;;;;;;6.83;3.60;;;;;;;15.40;60.61;101626.78;5060472;28;20269;-70
2022/07/28 00:32:55;;;;;;;6.27;4.13;;;;;;;15.50;60.20;101625.06;5060807;28;20322;-71
2022/07/28 00:35:20;;;;;;;6.60;4.07;;;;;;;15.37;60.38;101633.78;5059923;28;20180;-72
2022/07/28 00:37:45;;;;;;;5.53;3.83;;;;;;;15.25;61.31;101627.59;5060120;28;20260;-72
2022/07/28 00:40:11;;;;;;;7.80;4.67;;;;;;;15.18;61.28;101624.94;5059215;28;20469;-70
2022/07/28 00:42:36;;;;;;;6.00;4.07;;;;;;;15.35;61.06;101638.16;5059780;28;20192;-70
2022/07/28 00:45:02;;;;;;;7.30;3.93;;;;;;;15.35;61.12;101638.16;5058967;28;20188;-71
2022/07/28 00:47:27;;;;;;;7.10;4.53;;;;;;;15.16;61.35;101636.31;5059036;28;20178;-70
2022/07/28 00:49:53;;;;;;;5.03;3.63;;;;;;;15.30;60.84;101638.13;5059495;28;20166;-71
2022/07/28 00:52:19;;;;;;;6.23;4.57;;;;;;;15.23;61.34;101626.69;5058990;28;20185;-71
2022/07/28 00:54:44;;;;;;;5.00;4.10;;;;;;;15.26;61.02;101624.13;5058672;28;20232;-71
2022/07/28 00:57:10;;;;;;;5.13;4.60;;;;;;;15.12;61.58;101629.28;5058623;28;20243;-71
2022/07/28 00:59:35;;;;;;;6.93;4.20;;;;;;;15.01;62.21;101628.34;5058677;28;20288;-71
2022/07/28 01:02:01;;;;;;;7.20;4.90;;;;;;;14.98;62.33;101623.09;5058670;28;20422;-71
2022/07/28 01:04:26;;;;;;;7.17;4.70;;;;;;;14.87;62.83;101625.66;5058364;28;20265;-71
2022/07/28 01:07:04;;;;;;;4.60;4.10;;;;;;;14.98;62.44;101625.72;5050311;28;20185;-70
2022/07/28 01:09:48;;;;;;;4.83;4.10;;;;;;;14.90;62.79;101617.78;5038856;28;20257;-70
2022/07/28 01:12:21;;;;;;;8.93;4.53;;;;;;;14.90;62.56;101624.81;5038778;28;20376;-70
2022/07/28 01:14:49;;;;;;;5.87;4.13;;;;;;;14.90;62.85;101627.44;5037976;28;20395;-70
2022/07/28 01:17:35;;;;;;;6.70;4.10;;;;;;;14.94;62.67;101629.19;5037947;28;20413;-70
2022/07/28 01:20:10;;;;;;;5.40;4.00;;;;;;;15.03;62.51;101628.34;5038628;28;20439;-70
2022/07/28 01:23:01;;;;;;;6.13;4.07;;;;;;;15.23;61.85;101631.09;5038677;28;20537;-70
2022/07/28 01:25:38;;;;;;;5.63;4.10;;;;;;;14.97;62.80;101627.44;5037828;28;20383;-69
2022/07/28 01:28:22;;;;;;;8.87;3.90;;;;;;;15.01;63.12;101632.75;5038538;28;20528;-70
2022/07/28 01:30:55;;;;;;;6.00;4.40;;;;;;;15.18;62.94;101640.69;5038311;28;20440;-71
2022/07/28 01:33:37;;;;;;;5.40;3.80;;;;;;;15.01;63.78;101644.09;5038389;28;20421;-70
2022/07/28 01:36:07;;;;;;;8.90;4.67;;;;;;;15.08;63.86;101635.38;5037780;28;20421;-70
2022/07/28 01:38:34;;;;;;;6.50;4.40;;;;;;;15.18;63.87;101636.34;5037743;28;20421;-71
2022/07/28 01:41:01;;;;;;;5.20;4.20;;;;;;;15.03;64.24;101636.22;5037389;28;20559;-70
2022/07/28 01:43:28;;;;;;;4.63;3.60;;;;;;;15.12;64.77;101638.91;5037897;28;20803;-70
2022/07/28 01:45:54;;;;;;;4.90;3.97;;;;;;;15.21;64.83;101646.84;5037441;28;20398;-72
2022/07/28 01:48:23;;;;;;;7.70;4.27;;;;;;;15.27;64.54;101635.47;5037402;28;20398;-70
2022/07/28 01:50:49;;;;;;;6.07;3.80;;;;;;;15.34;64.39;101645.13;5037786;28;20486;-71
2022/07/28 01:53:15;;;;;;;5.20;4.20;;;;;;;15.33;64.74;101643.41;5037298;28;20855;-71
2022/07/28 01:55:42;;;;;;;8.90;4.10;;;;;;;15.52;64.51;101641.72;5037031;28;20429;-70
2022/07/28 01:58:08;;;;;;;4.50;4.10;;;;;;;15.48;64.64;101642.59;5038354;28;20443;-71
2022/07/28 02:00:34;;;;;;;5.20;3.80;;;;;;;15.68;63.97;101637.38;5037846;28;20834;-71
2022/07/28 02:03:02;;;;;;;5.60;4.03;;;;;;;15.45;64.59;101640.81;5037449;28;20177;-72
2022/07/28 02:05:28;;;;;;;4.43;3.77;;;;;;;15.51;64.47;101644.34;5037646;28;20492;-71
2022/07/28 02:07:54;;;;;;;5.47;3.63;;;;;;;15.57;64.45;101629.44;5037407;28;20417;-70
2022/07/28 02:10:20;;;;;;;3.93;3.60;;;;;;;15.42;64.62;101642.56;5037810;28;20420;-70
2022/07/28 02:12:47;;;;;;;5.40;3.60;;;;;;;15.47;64.75;101638.19;5037711;28;20412;-71
2022/07/28 02:15:13;;;;;;;5.00;3.53;;;;;;;15.52;64.92;101628.59;5037072;28;20428;-70
2022/07/28 02:17:41;;;;;;;5.47;3.40;;;;;;;15.53;64.67;101626.81;5037383;28;20421;-70
2022/07/28 02:20:08;;;;;;;4.13;3.53;;;;;;;15.54;64.92;101624.19;5038288;28;20189;-70
2022/07/28 02:22:36;;;;;;;6.80;3.93;;;;;;;15.15;65.70;101624.06;5037109;28;20471;-70
2022/07/28 02:25:01;;;;;;;4.60;3.43;;;;;;;15.42;65.67;101625.03;5039381;28;20413;-70
2022/07/28 02:27:37;;;;;;;3.77;3.20;;;;;;;15.43;65.74;101621.53;5042135;28;20671;-71
2022/07/28 02:30:09;;;;;;;4.70;3.40;;;;;;;15.25;66.13;101629.31;5041860;28;20174;-70
2022/07/28 02:32:52;;;;;;;5.80;3.90;;;;;;;15.23;66.53;101621.44;5041591;28;20429;-69
2022/07/28 02:35:33;;;;;;;6.87;4.33;;;;;;;15.44;65.84;101627.69;5041433;28;20412;-70
2022/07/28 02:38:06;;;;;;;5.30;3.87;;;;;;;15.13;66.36;101624.91;5041592;28;20407;-70
2022/07/28 02:40:34;;;;;;;8.30;4.13;;;;;;;15.15;66.47;101631.94;5041704;28;20496;-70
2022/07/28 02:43:00;;;;;;;4.93;4.27;;;;;;;15.09;66.94;101629.28;5040818;28;20482;-70
2022/07/28 02:45:27;;;;;;;6.20;4.20;;;;;;;14.98;66.83;101628.34;5041214;28;20421;-70
2022/07/28 02:48:02;;;;;;;5.97;4.13;;;;;;;15.22;66.40;101631.94;5041382;28;20216;-71
2022/07/28 02:50:28;;;;;;;7.07;4.40;;;;;;;15.32;66.27;101629.38;5041547;28;20428;-70
2022/07/28 02:52:56;;;;;;;5.43;3.97;;;;;;;15.07;66.60;101633.66;5041167;28;20426;-70
2022/07/28 02:55:23;;;;;;;6.10;4.40;;;;;;;15.08;67.07;101638.00;5040906;28;20458;-70
2022/07/28 02:57:49;;;;;;;4.97;4.37;;;;;;;14.97;67.09;101637.94;5040462;28;20399;-70
2022/07/28 03:00:14;;;;;;;7.63;4.20;;;;;;;14.99;67.10;101638.84;5040461;28;20776;-71
2022/07/28 03:02:45;;;;;;;6.60;4.70;;;;;;;15.00;67.36;101647.59;5040879;28;20491;-70
2022/07/28 03:05:12;;;;;;;9.23;4.37;;;;;;;15.16;66.96;101641.56;5040255;28;20470;-70
2022/07/28 03:07:37;;;;;;;6.83;4.10;;;;;;;14.97;66.98;101644.97;5043466;28;20437;-71
2022/07/28 03:10:03;;;;;;;5.77;4.40;;;;;;;15.11;66.49;101639.78;5040787;28;20436;-70
2022/07/28 03:12:29;;;;;;;7.50;4.10;;;;;;;15.30;66.33;101649.53;5041016;28;20261;-70
2022/07/28 03:14:54;;;;;;;5.13;3.80;;;;;;;15.41;66.27;101649.56;5040933;28;20606;-70
2022/07/28 03:17:19;;;;;;;3.90;3.60;;;;;;;15.32;65.88;101649.53;5041238;28;20184;-70
2022/07/28 03:19:45;;;;;;;8.80;4.10;;;;;;;15.14;66.67;101651.19;5040797;28;20206;-71
2022/07/28 03:22:10;;;;;;;8.03;3.73;;;;;;;15.58;65.20;101651.38;5040844;28;20170;-70
2022/07/28 03:24:44;;;;;;;5.57;4.00;;;;;;;15.34;65.31;101658.28;5041079;28;20174;-70
2022/07/28 03:27:14;;;;;;;7.33;4.20;;;;;;;15.35;66.08;101662.66;5041157;28;20273;-69
2022/07/28 03:29:42;;;;;;;5.00;3.80;;;;;;;15.44;65.80;101660.09;5039909;28;20504;-70
2022/07/28 03:32:08;;;;;;;4.27;3.87;;;;;;;15.25;66.61;101656.50;5039939;28;20483;-71
2022/07/28 03:34:34;;;;;;;6.00;4.00;;;;;;;15.56;65.77;101659.25;5040395;28;20399;-71
2022/07/28 03:37:02;;;;;;;9.20;4.10;;;;;;;15.74;65.10;101668.94;5039488;28;20504;-70
2022/07/28 03:39:33;;;;;;;7.30;3.70;;;;;;;15.48;65.74;101664.47;5039785;28;20198;-70
2022/07/28 03:41:58;;;;;;;6.13;4.20;;;;;;;15.28;65.77;101671.41;5039721;28;20420;-70
2022/07/28 03:44:25;;;;;;;9.23;4.80;;;;;;;15.51;65.41;101668.00;5039794;28;20794;-70
2022/07/28 03:46:50;;;;;;;5.10;3.93;;;;;;;15.72;65.19;101664.56;5039682;28;20186;-70
2022/07/28 03:49:15;;;;;;;8.13;3.97;;;;;;;15.48;65.25;101664.47;5040343;28;20781;-71
2022/07/28 03:51:41;;;;;;;5.43;4.00;;;;;;;15.38;65.69;101672.31;5040721;28;20174;-70
2022/07/28 03:54:07;;;;;;;6.07;3.90;;;;;;;15.49;65.47;101674.13;5039921;28;20249;-70
2022/07/28 03:56:32;;;;;;;5.03;3.90;;;;;;;15.52;65.38;101672.38;5043397;28;20947;-69
2022/07/28 03:58:58;;;;;;;5.50;4.00;;;;;;;15.66;64.44;101668.91;5040338;28;20277;-70
2022/07/28 04:01:23;;;;;;;7.00;4.20;;;;;;;15.59;64.22;101672.41;5040058;28;20591;-70
2022/07/28 04:03:48;;;;;;;6.17;4.07;;;;;;;15.79;63.80;101672.47;5039873;28;20189;-70
2022/07/28 04:06:14;;;;;;;5.03;3.93;;;;;;;15.75;64.05;101670.72;5040383;28;20495;-70
2022/07/28 04:08:40;;;;;;;5.93;3.93;;;;;;;15.87;63.48;101671.66;5039856;28;20248;-70
2022/07/28 04:11:05;;;;;;;4.63;3.67;;;;;;;16.00;63.14;101676.94;5039847;28;20424;-69
2022/07/28 04:13:31;;;;;;;4.40;4.00;;;;;;;16.01;62.86;101675.19;5043291;28;20474;-70
2022/07/28 04:15:57;;;;;;;5.97;4.50;;;;;;;15.85;63.14;101671.66;5039835;28;20183;-70
2022/07/28 04:18:22;;;;;;;4.63;3.67;;;;;;;16.01;62.98;101677.81;5039622;28;20176;-70
2022/07/28 04:20:47;;;;;;;6.73;4.40;;;;;;;16.18;62.45;101677.84;5040046;28;20209;-70
2022/07/28 04:23:13;;;;;;;6.43;4.20;;;;;;;15.94;62.81;101676.94;5039797;28;20178;-70
2022/07/28 04:25:38;;;;;;;5.57;4.03;;;;;;;15.82;62.90;101676.91;5039498;28;20197;-70
2022/07/28 04:28:04;;;;;;;5.37;4.50;;;;;;;15.95;63.06;101676.06;5039891;28;20182;-70
2022/07/28 04:30:29;;;;;;;4.27;3.87;;;;;;;16.06;61.98;101681.34;5039617;28;20235;-70
2022/07/28 04:32:55;;;;;;;9.90;5.10;;;;;;;16.28;61.15;101676.13;5039418;28;20532;-70
2022/07/28 04:35:23;;;;;;;4.87;4.37;;;;;;;16.27;61.10;101680.47;5039504;28;20478;-71
2022/07/28 04:37:49;;;;;;;8.60;4.53;;;;;;;16.17;61.17;101670.84;5039279;28;20181;-70
2022/07/28 04:40:14;;;;;;;7.30;4.10;;;;;;;16.28;61.15;101665.59;5042079;28;20443;-70
2022/07/28 04:42:40;;;;;;;6.73;4.17;;;;;;;16.59;60.74;101666.47;5039613;28;20424;-70
2022/07/28 04:45:07;;;;;;;5.70;4.03;;;;;;;16.69;60.31;101677.00;5039013;28;20440;-70
2022/07/28 04:47:33;;;;;;;4.53;3.83;;;;;;;17.24;58.85;101673.41;5038494;28;20181;-71
2022/07/28 04:49:58;;;;;;;8.23;3.50;;;;;;;17.64;57.19;101670.59;5038838;28;20392;-71
2022/07/28 04:52:25;;;;;;;5.97;3.87;;;;;;;17.00;58.82;101680.50;5038926;28;20182;-70
2022/07/28 04:54:51;;;;;;;5.30;4.10;;;;;;;16.96;58.82;101676.13;5038660;28;20357;-71
2022/07/28 04:57:17;;;;;;;9.47;4.50;;;;;;;17.10;58.42;101669.06;5039280;28;20826;-70
2022/07/28 04:59:42;;;;;;;5.93;4.20;;;;;;;16.79;58.70;101681.34;5038590;28;20289;-69
2022/07/28 05:02:07;;;;;;;7.70;3.70;;;;;;;17.66;56.70;101668.84;5038733;28;20178;-70
2022/07/28 05:04:33;;;;;;;5.30;3.87;;;;;;;17.60;56.77;101664.50;5039022;28;20175;-70
2022/07/28 05:06:59;;;;;;;6.97;3.90;;;;;;;17.20;57.24;101676.91;5038512;28;20281;-70
2022/07/28 05:09:24;;;;;;;6.50;3.97;;;;;;;17.70;56.40;101667.94;5038596;28;20254;-70
2022/07/28 05:11:49;;;;;;;8.63;3.73;;;;;;;18.34;54.42;101673.72;5039253;28;20170;-70
2022/07/28 05:14:16;;;;;;;7.20;4.10;;;;;;;17.85;55.21;101670.50;5038357;28;20197;-70
2022/07/28 05:16:41;;;;;;;5.83;3.87;;;;;;;18.03;55.69;101670.44;5038277;28;20444;-71
2022/07/28 05:19:06;;;;;;;4.97;3.53;;;;;;;18.46;53.94;101673.63;5038968;28;20420;-70
2022/07/28 05:21:32;;;;;;;5.53;3.73;;;;;;;18.04;55.05;101680.13;5038438;28;20170;-68
2022/07/28 05:23:57;;;;;;;5.03;3.40;;;;;;;17.98;55.68;101675.72;5041462;28;20615;-70
2022/07/28 05:26:23;;;;;;;4.10;3.47;;;;;;;17.75;55.64;101676.72;5054662;28;20189;-68
2022/07/28 05:28:48;;;;;;;6.27;3.70;;;;;;;17.76;55.64;101683.72;5058227;28;20264;-68
2022/07/28 05:31:13;;;;;;;7.40;3.80;;;;;;;17.72;55.75;101689.03;5058342;28;20419;-69
2022/07/28 05:33:39;;;;;;;5.87;3.50;;;;;;;17.54;56.02;101690.00;5058478;28;20488;-66
2022/07/28 05:36:05;;;;;;;7.57;3.90;;;;;;;17.49;56.60;101698.81;5058377;28;20188;-65
2022/07/28 05:38:31;;;;;;;10.63;3.50;;;;;;;17.47;55.61;101692.66;5058074;28;20395;-65
2022/07/28 05:40:57;;;;;;;3.60;3.13;;;;;;;17.07;56.65;101698.03;5058456;28;20539;-66
2022/07/28 05:43:23;;;;;;;27.17;4.23;;;;;;;17.74;56.22;101703.97;5058076;28;20178;-67
2022/07/28 05:45:49;;;;;;;12.00;3.70;;;;;;;17.39;57.88;101701.50;5058021;28;20489;-67
2022/07/28 05:48:18;;;;;;;10.73;3.97;;;;;;;17.84;56.43;101700.38;5058564;28;20169;-66
2022/07/28 05:50:44;;;;;;;13.13;4.40;;;;;;;17.75;57.16;101702.19;5058261;28;20170;-70
2022/07/28 05:53:09;;;;;;;8.97;3.90;;;;;;;17.99;56.57;101693.31;5057755;28;20468;-67
2022/07/28 05:55:35;;;;;;;4.80;3.90;;;;;;;18.26;55.74;101701.94;5058418;28;20224;-66
2022/07/28 05:58:00;;;;;;;5.30;3.50;;;;;;;18.05;56.38;101703.84;5057844;28;20194;-68
2022/07/28 06:00:25;;;;;;;7.00;3.80;;;;;;;18.88;53.00;101702.34;5057424;28;20248;-66
2022/07/28 06:02:51;;;;;;;6.00;3.57;;;;;;;18.18;54.15;101702.88;5053542;28;20550;-65
2022/07/28 06:05:18;;;;;;;6.67;3.30;;;;;;;18.17;54.92;101701.13;5044307;28;20188;-65
2022/07/28 06:07:45;;;;;;;7.43;3.50;;;;;;;17.94;54.92;101697.75;5038073;28;20181;-66
2022/07/28 06:10:16;;;;;;;4.23;3.50;;;;;;;18.25;54.61;101702.81;5056164;28;20395;-65
2022/07/28 06:12:45;;;;;;;7.30;3.27;;;;;;;18.99;52.32;101694.31;5057816;28;20416;-66
2022/07/28 06:15:15;;;;;;;4.50;3.03;;;;;;;18.62;52.87;101700.78;5044404;28;20746;-66
2022/07/28 06:17:41;;;;;;;3.80;3.20;;;;;;;18.41;52.44;101693.03;5042694;28;20432;-66
2022/07/28 06:20:07;;;;;;;5.37;3.10;;;;;;;18.59;52.47;101689.38;5039158;28;20850;-65
2022/07/28 06:22:46;;;;;;;5.70;3.23;;;;;;;18.71;52.10;101697.19;5057709;28;20168;-66
2022/07/28 06:25:16;;;;;;;5.63;3.10;;;;;;;18.87;51.15;101702.34;5046018;28;20437;-66
2022/07/28 06:27:43;;;;;;;3.77;2.90;;;;;;;19.05;50.15;101704.84;5037823;28;20455;-65
2022/07/28 06:30:11;;;;;;;4.33;2.90;;;;;;;19.17;49.55;101714.38;5038220;28;20453;-66
2022/07/28 06:32:37;;;;;;;5.17;3.30;;;;;;;18.73;50.94;101710.41;5046573;28;20415;-66
2022/07/28 06:35:03;;;;;;;6.60;3.20;;;;;;;18.81;50.81;101714.72;5050883;28;20467;-68
2022/07/28 06:37:28;;;;;;;8.53;3.40;;;;;;;18.85;50.78;101723.50;5048309;28;20220;-66
2022/07/28 06:39:53;;;;;;;7.97;3.87;;;;;;;19.19;49.93;101715.25;5046986;28;20468;-67
2022/07/28 06:42:19;;;;;;;12.10;3.57;;;;;;;19.05;50.42;101719.81;5053373;28;20193;-67
2022/07/28 06:44:44;;;;;;;5.47;3.90;;;;;;;18.73;51.05;101724.47;5049203;28;20220;-66
2022/07/28 06:47:09;;;;;;;13.27;3.53;;;;;;;18.51;52.10;101729.91;5054057;28;20200;-66
2022/07/28 06:49:35;;;;;;;6.43;3.17;;;;;;;18.76;51.26;101726.22;5063233;28;20220;-66
2022/07/28 06:52:00;;;;;;;10.20;3.43;;;;;;;18.76;52.58;101721.78;5057850;28;20264;-66
2022/07/28 06:54:25;;;;;;;3.60;3.20;;;;;;;18.84;51.01;101717.31;5041223;28;20233;-66
2022/07/28 06:56:52;;;;;;;5.13;3.23;;;;;;;18.68;52.52;101720.97;5051070;28;20271;-67
2022/07/28 06:59:18;;;;;;;6.03;3.10;;;;;;;18.63;51.14;101722.78;5056427;28;20201;-66
2022/07/28 07:01:43;;;;;;;6.73;3.60;;;;;;;18.07;53.28;101731.09;5055382;28;20790;-66
2022/07/28 07:04:08;;;;;;;4.70;3.50;;;;;;;18.78;52.36;101732.34;5056470;28;20180;-65
2022/07/28 07:06:34;;;;;;;5.97;3.87;;;;;;;18.73;52.56;101732.41;5056617;28;20223;-66
2022/07/28 07:08:59;;;;;;;7.13;3.70;;;;;;;18.57;52.50;101722.84;5056417;28;20165;-67
2022/07/28 07:11:25;;;;;;;6.90;3.77;;;;;;;19.05;51.49;101731.28;5051915;28;20170;-66
2022/07/28 07:13:51;;;;;;;3.50;3.07;;;;;;;19.23;51.05;101726.66;5045099;28;20195;-65
2022/07/28 07:16:17;;;;;;;7.50;3.30;;;;;;;18.82;51.46;101729.69;5059059;28;20703;-66
2022/07/28 07:18:42;;;;;;;3.83;2.93;;;;;;;18.55;51.06;101729.88;5058308;28;20417;-68
2022/07/28 07:21:07;;;;;;;5.00;2.73;;;;;;;19.02;50.34;101726.00;5040656;28;20214;-65
2022/07/28 07:23:34;;;;;;;5.83;3.10;;;;;;;19.06;49.45;101737.41;5040591;28;20205;-66
2022/07/28 07:25:59;;;;;;;3.80;2.77;;;;;;;18.75;49.96;101727.09;5041093;28;20166;-65
2022/07/28 07:28:25;;;;;;;3.87;2.90;;;;;;;18.81;50.62;101725.28;5053158;28;20835;-66
2022/07/28 07:30:50;;;;;;;4.43;3.60;;;;;;;19.63;49.10;101731.50;5060542;28;20199;-65
2022/07/28 07:33:15;;;;;;;4.40;3.20;;;;;;;19.60;49.20;101724.47;5060708;28;20169;-66
2022/07/28 07:35:41;;;;;;;4.60;2.97;;;;;;;18.81;50.66;101738.47;5060202;28;20174;-65
2022/07/28 07:38:06;;;;;;;5.50;2.90;;;;;;;18.95;49.95;101734.88;5060449;28;20169;-65
2022/07/28 07:40:32;;;;;;;5.40;3.27;;;;;;;19.40;49.23;101730.00;5060673;28;20201;-65
2022/07/28 07:42:57;;;;;;;6.13;3.50;;;;;;;19.30;49.29;101741.59;5060393;28;20212;-66
2022/07/28 07:45:23;;;;;;;4.60;2.70;;;;;;;19.37;49.46;101742.38;5060005;28;20250;-66
2022/07/28 07:47:48;;;;;;;12.73;3.40;;;;;;;19.51;48.84;101730.75;5060732;28;20165;-68
2022/07/28 07:50:13;;;;;;;11.63;3.47;;;;;;;19.10;49.21;101733.84;5060177;28;20216;-65
2022/07/28 07:52:39;;;;;;;15.47;4.40;;;;;;;19.28;49.37;101735.41;5060099;28;20181;-67
2022/07/28 07:55:05;;;;;;;26.37;3.90;;;;;;;19.94;47.92;101736.44;5060209;28;20224;-67
2022/07/28 07:57:30;;;;;;;5.80;3.10;;;;;;;19.95;47.27;101730.25;5060190;28;20169;-68
2022/07/28 07:59:55;;;;;;;4.87;3.00;;;;;;;20.55;45.85;101720.53;5059775;28;20519;-66
2022/07/28 08:02:21;;;;;;;6.23;2.83;;;;;;;20.30;45.51;101726.22;5060475;28;20194;-66
2022/07/28 08:04:46;;;;;;;3.87;2.50;;;;;;;20.02;46.44;101729.25;5059660;28;20169;-67
2022/07/28 08:07:11;;;;;;;5.80;3.03;;;;;;;20.45;44.41;101731.28;5059646;28;20520;-66
2022/07/28 08:09:37;;;;;;;6.27;2.70;;;;;;;20.24;44.66;101721.91;5060292;28;20219;-67
2022/07/28 08:12:02;;;;;;;7.23;2.77;;;;;;;20.21;44.30;101723.72;5059691;28;20543;-67
2022/07/28 08:14:28;;;;;;;4.30;2.50;;;;;;;19.69;44.66;101739.38;5059624;28;20428;-66
2022/07/28 08:16:55;;;;;;;5.07;2.70;;;;;;;19.89;44.83;101735.63;5059980;28;20480;-65
2022/07/28 08:19:20;;;;;;;3.30;2.50;;;;;;;19.94;44.70;101723.19;5049093;28;20233;-67
2022/07/28 08:21:46;;;;;;;4.83;2.83;;;;;;;20.21;44.01;101732.50;5039495;28;20452;-67
2022/07/28 08:24:11;;;;;;;4.30;2.97;;;;;;;19.93;44.91;101727.63;5039732;28;20170;-67
2022/07/28 08:26:36;;;;;;;4.57;2.90;;;;;;;20.12;44.99;101733.53;5039490;28;20189;-67
2022/07/28 08:29:02;;;;;;;4.20;3.13;;;;;;;19.79;45.48;101734.84;5039582;28;20468;-67
2022/07/28 08:31:28;;;;;;;3.67;2.70;;;;;;;20.32;43.53;101735.91;5039965;28;20174;-67
2022/07/28 08:33:54;;;;;;;2.53;2.33;;;;;;;20.61;43.29;101725.75;5050321;28;20181;-67
2022/07/28 08:36:19;;;;;;;5.83;2.90;;;;;;;20.21;44.69;101729.88;5059289;28;20193;-68
2022/07/28 08:38:44;;;;;;;3.57;3.23;;;;;;;20.50;44.03;101729.44;5059496;28;20416;-67
2022/07/28 08:41:17;;;;;;;4.20;2.60;;;;;;;20.46;43.94;101733.03;5059081;28;20582;-67
2022/07/28 08:43:42;;;;;;;12.20;2.80;;;;;;;20.46;44.12;101732.16;5058280;28;20178;-68
2022/07/28 08:46:08;;;;;;;5.33;2.60;;;;;;;19.84;44.59;101725.97;5058805;28;20722;-67
2022/07/28 08:48:35;;;;;;;20.33;3.33;;;;;;;20.59;44.06;101733.69;5058785;28;20551;-67
2022/07/28 08:51:03;;;;;;;8.30;3.10;;;;;;;20.78;43.41;101729.00;5059064;28;20176;-67
2022/07/28 08:53:29;;;;;;;5.63;2.90;;;;;;;21.28;41.82;101720.16;5059005;28;20513;-67
2022/07/28 08:56:01;;;;;;;6.17;2.83;;;;;;;22.44;40.87;101720.34;5058983;28;20420;-67
2022/07/28 08:58:26;;;;;;;4.33;2.80;;;;;;;22.41;39.54;101718.66;5058316;28;20490;-68
2022/07/28 09:00:52;;;;;;;4.47;2.40;;;;;;;22.41;39.02;101723.06;5058544;28;20459;-68
2022/07/28 09:03:17;;;;;;;5.10;2.70;;;;;;;22.54;39.37;101712.13;5057708;28;20177;-65
2022/07/28 09:05:43;;;;;;;6.80;2.93;;;;;;;23.60;37.96;101704.84;5058804;28;20592;-65
2022/07/28 09:08:10;;;;;;;3.83;2.60;;;;;;;23.69;37.99;101706.34;5058590;28;20204;-65
2022/07/28 09:10:35;;;;;;;3.07;2.70;;;;;;;25.21;35.53;101702.31;5057980;28;20165;-65
2022/07/28 09:13:01;;;;;;;3.30;2.60;;;;;;;25.17;35.40;101698.03;5058229;28;20412;-66
2022/07/28 09:15:26;;;;;;;4.63;2.80;;;;;;;23.98;36.49;101699.31;5058398;28;20174;-65
2022/07/28 09:17:52;;;;;;;3.60;2.47;;;;;;;23.36;37.59;101701.13;5058331;28;20193;-65
2022/07/28 09:20:19;;;;;;;4.73;2.70;;;;;;;22.88;37.93;101708.59;5058628;28;20241;-66
2022/07/28 09:22:59;;;;;;;3.90;2.53;;;;;;;24.63;36.34;101698.09;5057797;28;20584;-65
2022/07/28 09:25:25;;;;;;;2.60;2.20;;;;;;;24.82;35.13;101695.66;5058368;28;20434;-66
2022/07/28 09:27:51;;;;;;;4.20;3.50;;;;;;;25.96;33.10;101697.72;5058476;28;20412;-66
2022/07/28 09:30:32;;;;;;;3.20;2.53;;;;;;;24.69;35.12;101700.56;5057650;28;20416;-68
2022/07/28 09:33:21;;;;;;;4.77;3.03;;;;;;;25.25;33.91;101698.59;5058323;28;20181;-68
2022/07/28 09:35:51;;;;;;;6.30;2.90;;;;;;;22.49;38.35;101710.50;5057619;28;20404;-65
2022/07/28 09:38:18;;;;;;;4.10;2.57;;;;;;;24.01;35.01;101700.06;5058188;28;20427;-67
2022/07/28 09:40:58;;;;;;;3.70;2.60;;;;;;;21.66;39.73;101714.09;5057971;28;20609;-66
2022/07/28 09:43:42;;;;;;;5.03;2.93;;;;;;;23.73;37.07;101708.00;5058156;28;20451;-67
2022/07/28 09:46:08;;;;;;;4.00;2.80;;;;;;;24.03;35.81;101700.03;5058259;28;20427;-66
2022/07/28 09:48:48;;;;;;;7.23;3.20;;;;;;;24.36;35.02;101710.53;5057143;28;20420;-64
2022/07/28 09:51:15;;;;;;;3.93;2.53;;;;;;;25.24;33.14;101701.34;5057912;28;20415;-66
2022/07/28 09:53:42;;;;;;;8.27;3.17;;;;;;;25.78;32.07;101696.66;5057711;28;20460;-67
2022/07/28 09:56:08;;;;;;;4.90;3.53;;;;;;;26.22;31.99;101702.03;5057864;28;20521;-66
2022/07/28 09:58:34;;;;;;;3.27;2.60;;;;;;;24.65;34.23;101695.38;5058442;28;20420;-65
2022/07/28 10:01:08;;;;;;;3.00;2.70;;;;;;;23.21;36.72;101703.28;5056934;28;20479;-67
2022/07/28 10:03:48;;;;;;;6.37;3.23;;;;;;;24.66;35.03;101697.13;5056777;28;20422;-65
2022/07/28 10:06:15;;;;;;;2.97;2.67;;;;;;;23.97;35.87;101700.22;5057772;28;20404;-65
2022/07/28 10:08:47;;;;;;;3.90;2.67;;;;;;;24.01;35.93;101699.22;5057831;28;20412;-65
2022/07/28 10:11:28;;;;;;;5.83;2.53;;;;;;;23.50;37.63;101706.03;5057673;28;20431;-65
2022/07/28 10:14:01;;;;;;;3.63;3.07;;;;;;;23.18;37.33;101707.84;5057701;28;20710;-65
2022/07/28 10:16:41;;;;;;;5.63;3.20;;;;;;;22.36;39.04;101715.22;5057827;28;20423;-65
2022/07/28 10:19:06;;;;;;;3.10;2.80;;;;;;;22.55;39.56;101710.31;5057844;28;20420;-66
2022/07/28 10:21:33;;;;;;;2.60;2.33;;;;;;;22.05;38.82;101710.59;5057650;28;20459;-66
2022/07/28 10:24:03;;;;;;;3.57;2.40;;;;;;;21.63;39.79;101710.63;5056697;28;20547;-67
2022/07/28 10:26:42;;;;;;;4.37;3.10;;;;;;;22.08;38.84;101707.00;5058049;28;20408;-66
2022/07/28 10:29:12;;;;;;;4.97;2.80;;;;;;;21.93;39.45;101710.88;5056852;28;20420;-68
2022/07/28 10:31:47;;;;;;;4.60;2.57;;;;;;;21.97;39.49;101708.09;5056694;28;20724;-66
2022/07/28 10:34:34;;;;;;;17.63;12.10;;;;;;;21.65;39.37;101714.13;5057310;28;20439;-65
2022/07/28 10:37:05;;;;;;;4.70;3.10;;;;;;;21.39;39.89;101707.53;5057906;28;20456;-67
2022/07/28 10:39:38;;;;;;;3.30;3.00;;;;;;;21.70;39.77;101713.13;5056779;28;20477;-68
2022/07/28 10:42:10;;;;;;;4.87;2.97;;;;;;;20.52;40.74;101706.41;5056968;28;20415;-66
2022/07/28 10:44:37;;;;;;;4.60;2.87;;;;;;;20.92;40.03;101704.91;5068250;28;20434;-67
2022/07/28 10:47:08;;;;;;;3.10;2.50;;;;;;;21.50;39.04;101708.22;5080815;28;20465;-66
2022/07/28 10:49:34;;;;;;;5.27;3.20;;;;;;;20.75;40.64;101706.97;5081028;28;20493;-65
2022/07/28 10:52:00;;;;;;;8.70;5.60;;;;;;;21.50;39.83;101702.91;5081189;28;20423;-66
2022/07/28 10:54:28;;;;;;;5.53;3.00;;;;;;;21.69;39.41;101706.06;5080210;28;20704;-67
2022/07/28 10:56:55;;;;;;;3.80;2.67;;;;;;;21.13;40.55;101698.31;5081265;28;20198;-66
2022/07/28 10:59:40;;;;;;;16.10;4.37;;;;;;;21.70;40.34;101699.88;5051929;28;20689;-66
2022/07/28 11:02:05;;;;;;;4.57;3.63;;;;;;;21.42;39.66;101698.66;5047305;28;20473;-65
2022/07/28 11:04:51;;;;;;;3.37;2.37;;;;;;;21.66;38.81;101698.19;5053222;28;20421;-69
2022/07/28 11:07:17;;;;;;;3.87;2.60;;;;;;;21.65;39.73;101700.84;5043472;28;20228;-67
2022/07/28 11:09:44;;;;;;;13.53;3.63;;;;;;;22.25;39.10;101703.97;5054407;28;20440;-67
2022/07/28 11:12:14;;;;;;;18.63;9.30;;;;;;;22.40;38.78;101689.47;5060349;28;20473;-66
2022/07/28 11:14:40;;;;;;;4.07;2.90;;;;;;;21.84;39.63;101699.56;5054225;28;20455;-66
2022/07/28 11:17:05;;;;;;;5.70;3.90;;;;;;;21.58;40.13;101708.09;5042132;28;20806;-66
2022/07/28 11:19:50;;;;;;;3.93;2.50;;;;;;;21.15;39.55;101701.81;5061360;28;20461;-66
2022/07/28 11:22:20;;;;;;;5.23;2.57;;;;;;;21.41;40.46;101707.53;5060726;28;20184;-66
2022/07/28 11:24:59;;;;;;;5.93;2.63;;;;;;;21.47;39.39;101705.63;5057400;28;20876;-64
2022/07/28 11:27:40;;;;;;;4.00;2.53;;;;;;;20.54;41.66;101703.78;5040062;28;20417;-66